createdAt,value
2022-10-27T00:01:20.451Z,2.78
2022-10-27T00:06:22.373Z,2.78
2022-10-27T00:11:24.278Z,2.47
2022-10-27T00:16:26.122Z,3.15
2022-10-27T00:21:28.056Z,2.45
2022-10-27T00:26:29.872Z,2.80
2022-10-27T00:31:31.669Z,3.00
2022-10-27T00:36:33.537Z,2.72
2022-10-27T00:41:39.321Z,2.92
2022-10-27T00:46:46.266Z,2.90
2022-10-27T00:51:54.158Z,2.53
2022-10-27T00:56:57.512Z,2.70
2022-10-27T01:07:06.523Z,2.53
2022-10-27T01:12:08.795Z,2.90
2022-10-27T01:17:19.614Z,2.60
2022-10-27T01:22:34.270Z,3.47
2022-10-27T01:27:57.820Z,2.40
2022-10-27T01:33:10.808Z,2.28
2022-10-27T01:38:17.193Z,2.33
2022-10-27T01:43:23.603Z,2.33
2022-10-27T01:48:25.744Z,2.85
2022-10-27T01:53:30.383Z,2.63
2022-10-27T01:58:38.274Z,3.10
2022-10-27T02:04:07.899Z,2.92
2022-10-27T02:09:22.380Z,2.72
2022-10-27T02:14:24.696Z,3.40
2022-10-27T02:19:33.486Z,3.10
2022-10-27T02:24:35.550Z,2.85
2022-10-27T02:29:42.260Z,3.03
2022-10-27T02:34:45.719Z,3.13
2022-10-27T02:39:47.955Z,2.50
2022-10-27T02:44:49.788Z,2.95
2022-10-27T02:49:51.628Z,2.88
2022-10-27T02:54:53.430Z,3.15
2022-10-27T02:59:55.221Z,3.00
2022-10-27T03:04:58.137Z,3.10
2022-10-27T03:09:59.987Z,2.42
2022-10-27T03:15:01.860Z,2.50
2022-10-27T03:20:04.179Z,2.97
2022-10-27T03:25:06.909Z,2.97
2022-10-27T03:30:10.909Z,3.30
2022-10-27T03:35:12.716Z,3.17
2022-10-27T03:40:14.545Z,2.78
2022-10-27T03:45:16.819Z,3.63
2022-10-27T03:50:18.606Z,3.42
2022-10-27T03:55:20.646Z,3.17
2022-10-27T04:00:22.983Z,3.15
2022-10-27T04:05:25.117Z,3.22
2022-10-27T04:10:26.975Z,3.30
2022-10-27T04:15:29.356Z,3.40
2022-10-27T04:20:31.548Z,3.53
2022-10-27T04:25:33.426Z,3.60
2022-10-27T04:30:35.877Z,3.60
2022-10-27T04:35:37.815Z,3.97
2022-10-27T04:40:39.652Z,3.72
2022-10-27T04:45:42.725Z,3.30
2022-10-27T04:50:44.522Z,3.78
2022-10-27T04:55:46.365Z,3.50
2022-10-27T05:00:48.769Z,3.75
2022-10-27T05:05:50.562Z,3.78
2022-10-27T05:10:52.354Z,4.45
2022-10-27T05:15:59.941Z,3.10
2022-10-27T05:21:01.749Z,3.35
2022-10-27T05:26:03.653Z,4.15
2022-10-27T05:31:05.706Z,3.70
2022-10-27T05:36:08.134Z,3.65
2022-10-27T05:41:10.469Z,4.13
2022-10-27T05:46:12.700Z,3.70
2022-10-27T05:51:16.771Z,4.13
2022-10-27T05:56:21.140Z,3.33
2022-10-27T06:01:23.070Z,4.25
2022-10-27T06:06:25.011Z,3.88
2022-10-27T06:11:27.328Z,3.58
2022-10-27T06:16:29.158Z,3.80
2022-10-27T06:21:31.027Z,4.72
2022-10-27T06:26:32.943Z,4.00
2022-10-27T06:31:34.764Z,3.30
2022-10-27T06:36:36.580Z,4.15
2022-10-27T06:41:39.201Z,3.20
2022-10-27T06:46:41.047Z,2.80
2022-10-27T06:51:42.994Z,3.47
2022-10-27T06:56:44.857Z,3.50
2022-10-27T07:01:46.801Z,4.05
2022-10-27T07:06:48.715Z,4.15
2022-10-27T07:11:50.545Z,3.92
2022-10-27T07:16:52.358Z,3.47
2022-10-27T07:21:54.596Z,3.13
2022-10-27T07:26:56.467Z,3.17
2022-10-27T07:31:58.411Z,3.28
2022-10-27T07:37:00.678Z,3.00
2022-10-27T07:42:02.516Z,2.47
2022-10-27T07:47:04.326Z,2.80
2022-10-27T07:52:06.124Z,2.78
2022-10-27T07:57:07.954Z,2.78
2022-10-27T08:02:11.968Z,2.38
2022-10-27T08:07:14.006Z,2.50
2022-10-27T08:12:16.054Z,2.28
2022-10-27T08:17:18.320Z,2.63
2022-10-27T08:22:20.176Z,3.13
2022-10-27T08:27:21.965Z,2.83
2022-10-27T08:32:23.793Z,2.45
2022-10-27T08:37:25.617Z,2.88
2022-10-27T08:42:42.262Z,2.78
2022-10-27T08:47:45.108Z,2.72
2022-10-27T08:52:54.401Z,2.65
2022-10-27T08:58:01.249Z,3.37
2022-10-27T09:03:18.359Z,2.60
2022-10-27T09:08:37.626Z,2.83
2022-10-27T09:19:27.759Z,2.70
2022-10-27T09:24:31.874Z,2.33
2022-10-27T09:29:36.528Z,2.67
2022-10-27T09:34:48.797Z,2.97
2022-10-27T09:39:52.780Z,4.30
2022-10-27T09:45:00.693Z,5.75
2022-10-27T09:50:06.192Z,4.70
2022-10-27T09:55:08.599Z,3.60
2022-10-27T10:00:16.437Z,3.92
2022-10-27T10:05:27.589Z,3.67
2022-10-27T10:10:30.332Z,4.63
2022-10-27T10:15:37.809Z,3.25
2022-10-27T10:25:51.190Z,3.72
2022-10-27T10:30:54.721Z,3.58
2022-10-27T10:35:58.444Z,3.22
2022-10-27T10:41:14.336Z,3.63
2022-10-27T10:46:24.745Z,3.30
2022-10-27T10:56:36.740Z,3.05
2022-10-27T11:01:47.581Z,2.90
2022-10-27T11:07:05.637Z,3.00
2022-10-27T11:12:22.034Z,3.40
2022-10-27T11:17:26.002Z,3.50
2022-10-27T11:22:28.330Z,3.13
2022-10-27T11:28:01.040Z,3.05
2022-10-27T11:33:18.073Z,3.38
2022-10-27T11:38:47.451Z,3.08
2022-10-27T11:44:10.043Z,3.08
2022-10-27T11:49:22.725Z,2.70
2022-10-27T11:54:26.013Z,2.13
2022-10-27T12:00:00.682Z,2.50
2022-10-27T12:05:28.431Z,1.90
2022-10-27T12:10:30.295Z,2.10
2022-10-27T12:15:55.846Z,2.08
2022-10-27T12:21:04.079Z,2.15
2022-10-27T12:26:14.954Z,2.50
2022-10-27T12:31:23.937Z,1.73
2022-10-27T12:36:41.444Z,1.45
2022-10-27T12:41:55.113Z,1.77
2022-10-27T12:47:38.846Z,2.15
2022-10-27T12:53:15.783Z,1.90
2022-10-27T12:58:50.311Z,1.85
2022-10-27T13:04:25.786Z,1.73
2022-10-27T13:09:58.246Z,1.92
2022-10-27T13:15:35.337Z,2.30
2022-10-27T13:21:02.696Z,2.55
2022-10-27T13:26:16.407Z,1.40
2022-10-27T13:31:24.554Z,1.63
2022-10-27T13:36:27.949Z,1.15
2022-10-27T13:41:55.627Z,1.42
2022-10-27T13:47:18.267Z,1.10
2022-10-27T13:52:25.791Z,1.00
2022-10-27T13:57:39.589Z,1.25
2022-10-27T14:02:53.503Z,1.15
2022-10-27T14:07:55.644Z,0.68
2022-10-27T14:12:58.323Z,1.77
2022-10-27T14:18:00.411Z,1.13
2022-10-27T14:23:10.497Z,1.00
2022-10-27T14:33:21.161Z,0.60
2022-10-27T14:38:23.199Z,0.90
2022-10-27T14:43:25.882Z,0.80
2022-10-27T14:48:33.289Z,0.95
2022-10-27T14:53:36.774Z,0.70
2022-10-27T14:58:38.592Z,0.70
2022-10-27T15:08:44.561Z,1.05
2022-10-27T15:13:47.266Z,1.20
2022-10-27T15:18:49.951Z,1.10
2022-10-27T15:23:59.857Z,1.40
2022-10-27T15:29:03.839Z,1.52
2022-10-27T15:34:22.364Z,1.05
2022-10-27T15:39:25.578Z,1.20
2022-10-27T15:44:27.522Z,1.30
2022-10-27T15:49:31.411Z,0.95
2022-10-27T15:54:34.679Z,1.00
2022-10-27T15:59:36.519Z,1.27
2022-10-27T16:04:40.149Z,1.42
2022-10-27T16:09:43.955Z,1.65
2022-10-27T16:14:55.917Z,1.70
2022-10-27T16:20:06.656Z,1.45
2022-10-27T16:25:12.451Z,1.90
2022-10-27T16:30:23.069Z,1.90
2022-10-27T16:35:24.889Z,2.30
2022-10-27T16:40:26.895Z,4.10
2022-10-27T16:45:29.058Z,3.92
2022-10-27T16:50:30.929Z,3.78
2022-10-27T16:55:32.724Z,4.05
2022-10-27T17:00:34.626Z,3.33
2022-10-27T17:05:37.290Z,2.88
2022-10-27T17:10:39.065Z,2.97
2022-10-27T17:15:40.867Z,2.80
2022-10-27T17:20:42.821Z,2.63
2022-10-27T17:25:44.640Z,2.65
2022-10-27T17:30:47.831Z,3.63
2022-10-27T17:36:01.357Z,9.85
2022-10-27T17:41:05.186Z,6.43
2022-10-27T17:46:13.309Z,4.55
2022-10-27T17:51:21.326Z,3.95
2022-10-27T17:56:25.465Z,3.67
2022-10-27T18:01:29.375Z,3.50
2022-10-27T18:06:33.169Z,3.10
2022-10-27T18:11:37.638Z,3.28
2022-10-27T18:16:41.438Z,2.83
2022-10-27T18:21:45.600Z,3.05
2022-10-27T18:26:48.422Z,2.15
2022-10-27T18:31:50.310Z,2.60
2022-10-27T18:36:52.149Z,2.80
2022-10-27T18:41:53.974Z,3.35
2022-10-27T18:46:55.791Z,3.42
2022-10-27T18:51:57.597Z,3.60
2022-10-27T18:56:59.774Z,3.92
2022-10-27T19:02:02.029Z,4.03
2022-10-27T19:07:04.177Z,3.88
2022-10-27T19:12:06.476Z,3.60
2022-10-27T19:17:08.638Z,3.35
2022-10-27T19:22:10.848Z,3.85
2022-10-27T19:27:13.216Z,3.45
2022-10-27T19:32:15.718Z,3.63
2022-10-27T19:37:18.245Z,3.53
2022-10-27T19:42:20.942Z,4.22
2022-10-27T19:47:23.086Z,4.50
2022-10-27T19:52:25.420Z,4.53
2022-10-27T19:57:27.939Z,5.00
2022-10-27T20:02:31.975Z,4.00
2022-10-27T20:07:35.945Z,4.57
2022-10-27T20:12:38.088Z,4.47
2022-10-27T20:17:40.154Z,4.57
2022-10-27T20:22:41.998Z,4.03
2022-10-27T20:27:43.859Z,3.88
2022-10-27T20:32:45.770Z,3.78
2022-10-27T20:37:47.604Z,5.03
2022-10-27T20:42:50.418Z,4.20
2022-10-27T20:47:55.408Z,4.20
2022-10-27T20:52:57.753Z,4.65
2022-10-27T20:57:59.610Z,4.53
2022-10-27T21:03:01.394Z,4.90
2022-10-27T21:08:03.300Z,4.78
2022-10-27T21:13:05.104Z,4.78
2022-10-27T21:18:07.985Z,4.90
2022-10-27T21:23:11.328Z,5.50
2022-10-27T21:28:13.104Z,5.05
2022-10-27T21:33:14.885Z,5.13
2022-10-27T21:38:16.694Z,6.13
2022-10-27T21:43:18.500Z,5.53
2022-10-27T21:48:20.271Z,5.43
2022-10-27T21:53:22.969Z,4.97
2022-10-27T21:58:26.622Z,5.15
2022-10-27T22:03:28.415Z,5.65
2022-10-27T22:08:30.602Z,5.03
2022-10-27T22:13:33.107Z,5.57
2022-10-27T22:18:35.752Z,6.30
2022-10-27T22:23:37.612Z,5.68
2022-10-27T22:28:40.372Z,5.57
2022-10-27T22:33:45.654Z,4.93
2022-10-27T22:38:53.249Z,4.28
2022-10-27T22:43:56.823Z,4.35
2022-10-27T22:48:59.147Z,4.13
2022-10-27T22:54:00.938Z,4.78
2022-10-27T22:59:04.420Z,3.92
2022-10-27T23:04:08.227Z,3.58
2022-10-27T23:09:18.619Z,4.20
2022-10-27T23:19:22.284Z,4.00
2022-10-27T23:24:24.561Z,4.22
2022-10-27T23:29:26.310Z,3.80
2022-10-27T23:34:28.069Z,3.38
2022-10-27T23:39:29.808Z,3.58
2022-10-27T23:44:31.553Z,3.55
2022-10-27T23:49:33.337Z,3.47
2022-10-27T23:54:35.082Z,3.53
2022-10-27T23:59:36.821Z,3.55
